createdAt,value
2023-03-06T00:02:55.328Z,1.13
2023-03-06T00:09:37.670Z,1.17
2023-03-06T00:16:20.112Z,1.65
2023-03-06T00:23:02.941Z,1.20
2023-03-06T00:29:45.671Z,1.27
2023-03-06T00:36:28.283Z,1.83
2023-03-06T00:43:10.856Z,1.13
2023-03-06T00:49:53.265Z,1.10
2023-03-06T00:56:35.670Z,2.35
2023-03-06T01:03:18.013Z,0.95
2023-03-06T01:10:00.872Z,0.88
2023-03-06T01:16:43.350Z,1.00
2023-03-06T01:23:25.749Z,0.95
2023-03-06T01:30:11.814Z,0.80
2023-03-06T01:36:54.257Z,1.05
2023-03-06T01:43:44.409Z,1.55
2023-03-06T01:50:28.641Z,1.45
2023-03-06T01:57:24.498Z,1.00
2023-03-06T02:04:08.121Z,2.75
2023-03-06T02:11:25.559Z,1.30
2023-03-06T02:18:07.979Z,1.23
2023-03-06T02:25:11.426Z,1.20
2023-03-06T02:31:55.206Z,1.33
2023-03-06T02:38:49.069Z,1.00
2023-03-06T02:45:49.430Z,2.00
2023-03-06T02:52:31.918Z,1.60
2023-03-06T02:59:14.306Z,1.45
2023-03-06T03:05:56.941Z,1.25
2023-03-06T03:12:45.076Z,1.40
2023-03-06T03:19:29.274Z,1.80
2023-03-06T03:26:21.837Z,1.95
2023-03-06T03:33:16.237Z,2.17
2023-03-06T03:39:59.827Z,1.42
2023-03-06T03:46:42.634Z,1.50
2023-03-06T03:53:34.892Z,2.38
2023-03-06T04:00:18.622Z,2.10
2023-03-06T04:07:13.483Z,1.90
2023-03-06T04:13:57.078Z,2.30
2023-03-06T04:20:40.129Z,2.58
2023-03-06T04:27:23.748Z,2.63
2023-03-06T04:34:06.843Z,2.53
2023-03-06T04:40:49.920Z,3.15
2023-03-06T04:47:32.504Z,2.83
2023-03-06T04:54:14.876Z,2.63
2023-03-06T05:00:57.613Z,3.25
2023-03-06T05:07:41.299Z,2.45
2023-03-06T05:14:23.562Z,2.55
2023-03-06T05:21:07.406Z,2.15
2023-03-06T05:27:49.726Z,2.10
2023-03-06T05:34:32.151Z,2.75
2023-03-06T05:41:15.351Z,3.45
2023-03-06T05:47:57.646Z,3.20
2023-03-06T05:54:39.981Z,2.70
2023-03-06T06:01:22.418Z,2.90
2023-03-06T06:08:04.781Z,3.60
2023-03-06T06:14:47.057Z,3.33
2023-03-06T06:21:29.360Z,3.60
2023-03-06T06:28:12.531Z,3.55
2023-03-06T06:34:55.168Z,3.90
2023-03-06T06:41:55.292Z,3.67
2023-03-06T06:48:39.993Z,3.33
2023-03-06T06:55:25.381Z,3.50
2023-03-06T07:02:07.863Z,3.17
2023-03-06T07:08:50.193Z,3.65
2023-03-06T07:15:32.645Z,2.63
2023-03-06T07:22:15.146Z,3.13
2023-03-06T07:28:57.497Z,3.22
2023-03-06T07:35:44.308Z,3.08
2023-03-06T07:42:27.676Z,1.67
2023-03-06T07:49:17.074Z,1.85
2023-03-06T07:55:59.876Z,1.17
2023-03-06T08:02:43.074Z,1.50
2023-03-06T08:09:26.137Z,1.42
2023-03-06T08:16:09.353Z,1.20
2023-03-06T08:22:51.778Z,1.48
2023-03-06T08:29:34.065Z,1.30
2023-03-06T08:36:16.658Z,1.10
2023-03-06T08:42:58.962Z,1.20
2023-03-06T08:49:41.330Z,1.50
2023-03-06T08:56:30.898Z,1.27
2023-03-06T09:03:13.203Z,1.10
2023-03-06T09:10:01.603Z,2.13
2023-03-06T09:16:46.780Z,0.70
2023-03-06T09:23:29.060Z,0.70
2023-03-06T09:30:12.399Z,1.40
2023-03-06T09:36:57.268Z,1.45
2023-03-06T09:43:46.794Z,0.70
2023-03-06T09:50:40.804Z,0.68
2023-03-06T09:57:32.161Z,0.60
2023-03-06T10:04:42.562Z,0.30
2023-03-06T10:11:54.501Z,0.70
2023-03-06T10:18:39.124Z,0.52
2023-03-06T10:25:40.586Z,1.77
2023-03-06T10:32:49.079Z,3.25
2023-03-06T10:39:31.783Z,1.70
2023-03-06T10:46:26.035Z,0.40
2023-03-06T10:53:32.812Z,0.90
2023-03-06T11:00:36.065Z,0.80
2023-03-06T11:07:27.930Z,0.70
2023-03-06T11:14:27.499Z,0.95
2023-03-06T11:21:40.457Z,0.90
2023-03-06T11:28:42.148Z,0.85
2023-03-06T11:35:45.514Z,0.50
2023-03-06T11:42:38.036Z,0.80
2023-03-06T11:49:50.792Z,0.95
2023-03-06T11:56:53.891Z,0.88
2023-03-06T12:04:08.514Z,0.70
2023-03-06T12:10:58.229Z,1.00
2023-03-06T12:18:00.674Z,0.50
2023-03-06T12:25:28.480Z,0.63
2023-03-06T12:32:52.391Z,0.70
2023-03-06T12:40:11.719Z,0.90
2023-03-06T12:47:08.292Z,0.57
2023-03-06T12:53:51.655Z,0.63
2023-03-06T13:00:37.700Z,11.93
2023-03-06T13:08:00.971Z,10.60
2023-03-06T13:14:53.814Z,8.10
2023-03-06T13:22:07.291Z,30.98
2023-03-06T13:28:54.858Z,2.85
2023-03-06T13:35:48.600Z,1.70
2023-03-06T13:43:04.472Z,0.85
2023-03-06T13:49:49.057Z,0.93
2023-03-06T13:57:08.656Z,3.03
2023-03-06T14:04:32.751Z,4.00
2023-03-06T14:11:21.524Z,3.53
2023-03-06T14:18:17.216Z,2.20
2023-03-06T14:25:16.326Z,1.15
2023-03-06T14:32:01.632Z,2.78
2023-03-06T14:38:58.728Z,1.73
2023-03-06T14:46:00.063Z,3.60
2023-03-06T14:52:43.379Z,2.03
2023-03-06T14:59:29.001Z,7.25
2023-03-06T15:06:27.599Z,8.50
2023-03-06T15:13:24.557Z,18.80
2023-03-06T15:20:28.380Z,18.63
2023-03-06T15:27:21.401Z,8.15
2023-03-06T15:34:06.722Z,16.52
2023-03-06T15:47:39.522Z,4.32
2023-03-06T15:54:21.880Z,4.50
2023-03-06T16:01:04.635Z,5.03
2023-03-06T16:07:48.313Z,2.45
2023-03-06T16:14:30.999Z,2.53
2023-03-06T16:21:13.606Z,6.70
2023-03-06T16:27:58.319Z,8.93
2023-03-06T16:34:43.531Z,9.10
2023-03-06T16:41:25.921Z,16.70
2023-03-06T16:48:16.025Z,8.68
2023-03-06T16:54:58.396Z,7.55
2023-03-06T17:01:43.250Z,6.15
2023-03-06T17:08:25.860Z,4.72
2023-03-06T17:15:09.438Z,5.47
2023-03-06T17:21:51.763Z,4.88
2023-03-06T17:28:36.003Z,6.22
2023-03-06T17:35:18.857Z,7.13
2023-03-06T17:42:03.355Z,5.68
2023-03-06T17:48:45.931Z,6.13
2023-03-06T17:55:29.939Z,7.25
2023-03-06T18:02:12.512Z,6.82
2023-03-06T18:08:55.213Z,7.15
2023-03-06T18:15:41.651Z,8.75
2023-03-06T18:22:23.988Z,7.35
2023-03-06T18:29:06.383Z,7.63
2023-03-06T18:35:48.694Z,7.10
2023-03-06T18:42:31.080Z,7.90
2023-03-06T18:49:15.347Z,8.57
2023-03-06T18:55:57.757Z,9.18
2023-03-06T19:02:40.097Z,9.60
2023-03-06T19:09:23.728Z,11.00
2023-03-06T19:16:16.034Z,9.07
2023-03-06T19:22:58.354Z,9.90
2023-03-06T19:29:40.881Z,9.77
2023-03-06T19:36:27.856Z,8.93
2023-03-06T19:43:10.174Z,8.38
2023-03-06T19:49:52.453Z,5.78
2023-03-06T19:56:34.773Z,5.65
2023-03-06T20:03:19.088Z,5.18
2023-03-06T20:10:02.953Z,4.60
2023-03-06T20:16:46.953Z,6.43
2023-03-06T20:23:30.603Z,8.50
2023-03-06T20:30:13.260Z,7.53
2023-03-06T20:36:57.885Z,8.35
2023-03-06T20:43:40.370Z,6.47
2023-03-06T20:50:23.813Z,7.70
2023-03-06T20:57:06.561Z,7.28
2023-03-06T21:03:49.705Z,7.10
2023-03-06T21:10:32.133Z,8.07
2023-03-06T21:17:14.989Z,9.60
2023-03-06T21:23:58.541Z,8.40
2023-03-06T21:30:41.130Z,6.85
2023-03-06T21:37:23.751Z,10.13
2023-03-06T21:44:07.211Z,7.35
2023-03-06T21:50:49.574Z,7.50
2023-03-06T21:57:32.415Z,9.82
2023-03-06T22:04:14.822Z,6.72
2023-03-06T22:10:57.616Z,8.02
2023-03-06T22:17:41.693Z,6.40
2023-03-06T22:24:24.132Z,7.25
2023-03-06T22:31:17.029Z,7.78
2023-03-06T22:38:02.643Z,8.75
2023-03-06T22:44:45.245Z,10.30
2023-03-06T22:51:28.966Z,11.00
2023-03-06T22:58:11.482Z,9.40
2023-03-06T23:04:53.884Z,9.82
2023-03-06T23:11:36.272Z,10.07
2023-03-06T23:18:39.388Z,10.75
2023-03-06T23:25:40.311Z,9.65
2023-03-06T23:32:22.840Z,11.43
2023-03-06T23:39:05.201Z,11.85
2023-03-06T23:45:57.558Z,11.43
2023-03-06T23:52:40.697Z,12.85
2023-03-06T23:59:23.094Z,10.90
